sensor_id;sensor_type;location;lat;lon;timestamp;temperature;humidity
18930;DHT22;43305;52.186;5.598;2023-04-15T00:00:59;7.90;99.90
18930;DHT22;43305;52.186;5.598;2023-04-15T00:03:30;7.90;99.90
18930;DHT22;43305;52.186;5.598;2023-04-15T00:06:00;7.90;99.90
18930;DHT22;43305;52.186;5.598;2023-04-15T00:08:40;7.90;99.90
18930;DHT22;43305;52.186;5.598;2023-04-15T00:11:23;7.80;99.90
18930;DHT22;43305;52.186;5.598;2023-04-15T00:14:07;7.80;99.90
18930;DHT22;43305;52.186;5.598;2023-04-15T00:16:37;7.80;99.90
18930;DHT22;43305;52.186;5.598;2023-04-15T00:19:08;7.80;99.90
18930;DHT22;43305;52.186;5.598;2023-04-15T00:21:46;7.80;99.90
18930;DHT22;43305;52.186;5.598;2023-04-15T00:24:25;7.80;99.90
18930;DHT22;43305;52.186;5.598;2023-04-15T00:27:00;7.70;99.90
18930;DHT22;43305;52.186;5.598;2023-04-15T00:29:39;7.70;99.90
18930;DHT22;43305;52.186;5.598;2023-04-15T00:32:09;7.70;99.90
18930;DHT22;43305;52.186;5.598;2023-04-15T00:34:40;7.70;99.90
18930;DHT22;43305;52.186;5.598;2023-04-15T00:37:11;7.70;99.90
18930;DHT22;43305;52.186;5.598;2023-04-15T00:39:48;7.60;99.90
18930;DHT22;43305;52.186;5.598;2023-04-15T00:42:36;7.60;99.90
18930;DHT22;43305;52.186;5.598;2023-04-15T00:45:12;7.60;99.90
18930;DHT22;43305;52.186;5.598;2023-04-15T00:47:46;7.60;99.90
18930;DHT22;43305;52.186;5.598;2023-04-15T00:50:22;7.60;99.90
18930;DHT22;43305;52.186;5.598;2023-04-15T00:52:52;7.60;99.90
18930;DHT22;43305;52.186;5.598;2023-04-15T00:55:30;7.60;99.90
18930;DHT22;43305;52.186;5.598;2023-04-15T00:58:10;7.60;99.90
18930;DHT22;43305;52.186;5.598;2023-04-15T01:00:37;7.70;99.90
18930;DHT22;43305;52.186;5.598;2023-04-15T01:03:16;7.70;99.90
18930;DHT22;43305;52.186;5.598;2023-04-15T01:06:02;7.70;99.90
18930;DHT22;43305;52.186;5.598;2023-04-15T01:08:36;7.60;99.90
18930;DHT22;43305;52.186;5.598;2023-04-15T01:11:06;7.60;99.90
18930;DHT22;43305;52.186;5.598;2023-04-15T01:13:42;7.60;99.90
18930;DHT22;43305;52.186;5.598;2023-04-15T01:16:17;7.60;99.90
18930;DHT22;43305;52.186;5.598;2023-04-15T01:19:18;7.60;99.90
18930;DHT22;43305;52.186;5.598;2023-04-15T01:21:50;7.50;99.90
18930;DHT22;43305;52.186;5.598;2023-04-15T01:24:29;7.50;99.90
18930;DHT22;43305;52.186;5.598;2023-04-15T01:27:01;7.50;99.90
18930;DHT22;43305;52.186;5.598;2023-04-15T01:29:31;7.50;99.90
18930;DHT22;43305;52.186;5.598;2023-04-15T01:32:03;7.50;99.90
18930;DHT22;43305;52.186;5.598;2023-04-15T01:34:38;7.50;99.90
18930;DHT22;43305;52.186;5.598;2023-04-15T01:37:12;7.40;99.90
18930;DHT22;43305;52.186;5.598;2023-04-15T01:39:50;7.40;99.90
18930;DHT22;43305;52.186;5.598;2023-04-15T01:42:27;7.40;99.90
18930;DHT22;43305;52.186;5.598;2023-04-15T01:45:05;7.40;99.90
18930;DHT22;43305;52.186;5.598;2023-04-15T01:47:44;7.40;99.90
18930;DHT22;43305;52.186;5.598;2023-04-15T01:50:24;7.30;99.90
18930;DHT22;43305;52.186;5.598;2023-04-15T01:53:12;7.40;99.90
18930;DHT22;43305;52.186;5.598;2023-04-15T01:55:50;7.30;99.90
18930;DHT22;43305;52.186;5.598;2023-04-15T01:58:24;7.30;99.90
18930;DHT22;43305;52.186;5.598;2023-04-15T02:00:58;7.30;99.90
18930;DHT22;43305;52.186;5.598;2023-04-15T02:03:39;7.20;99.90
18930;DHT22;43305;52.186;5.598;2023-04-15T02:06:11;7.20;99.90
18930;DHT22;43305;52.186;5.598;2023-04-15T02:08:53;7.10;99.90
18930;DHT22;43305;52.186;5.598;2023-04-15T02:11:26;7.10;99.90
18930;DHT22;43305;52.186;5.598;2023-04-15T02:14:03;7.10;99.90
18930;DHT22;43305;52.186;5.598;2023-04-15T02:16:50;7.00;99.90
18930;DHT22;43305;52.186;5.598;2023-04-15T02:19:39;7.00;99.90
18930;DHT22;43305;52.186;5.598;2023-04-15T02:22:15;7.00;99.90
18930;DHT22;43305;52.186;5.598;2023-04-15T02:25:01;7.00;99.90
18930;DHT22;43305;52.186;5.598;2023-04-15T02:27:51;6.90;99.90
18930;DHT22;43305;52.186;5.598;2023-04-15T02:30:28;6.90;99.90
18930;DHT22;43305;52.186;5.598;2023-04-15T02:33:05;6.90;99.90
18930;DHT22;43305;52.186;5.598;2023-04-15T02:35:40;6.80;99.90
18930;DHT22;43305;52.186;5.598;2023-04-15T02:38:18;6.80;99.90
18930;DHT22;43305;52.186;5.598;2023-04-15T02:40:54;6.70;99.90
18930;DHT22;43305;52.186;5.598;2023-04-15T02:43:35;6.70;99.90
18930;DHT22;43305;52.186;5.598;2023-04-15T02:46:24;6.70;99.90
18930;DHT22;43305;52.186;5.598;2023-04-15T02:48:53;6.70;99.90
18930;DHT22;43305;52.186;5.598;2023-04-15T02:51:46;6.70;99.90
18930;DHT22;43305;52.186;5.598;2023-04-15T02:54:19;6.60;99.90
18930;DHT22;43305;52.186;5.598;2023-04-15T02:56:53;6.60;99.90
18930;DHT22;43305;52.186;5.598;2023-04-15T02:59:33;6.60;99.90
18930;DHT22;43305;52.186;5.598;2023-04-15T03:02:17;6.60;99.90
18930;DHT22;43305;52.186;5.598;2023-04-15T03:07:56;6.50;99.90
18930;DHT22;43305;52.186;5.598;2023-04-15T03:10:30;6.50;99.90
18930;DHT22;43305;52.186;5.598;2023-04-15T03:13:12;6.50;99.90
18930;DHT22;43305;52.186;5.598;2023-04-15T03:15:53;6.50;99.90
18930;DHT22;43305;52.186;5.598;2023-04-15T03:18:34;6.50;99.90
18930;DHT22;43305;52.186;5.598;2023-04-15T03:21:12;6.50;99.90
18930;DHT22;43305;52.186;5.598;2023-04-15T03:23:44;6.50;99.90
18930;DHT22;43305;52.186;5.598;2023-04-15T03:26:28;6.50;99.90
18930;DHT22;43305;52.186;5.598;2023-04-15T03:29:24;6.50;99.90
18930;DHT22;43305;52.186;5.598;2023-04-15T03:31:55;6.40;99.90
18930;DHT22;43305;52.186;5.598;2023-04-15T03:34:40;6.40;99.90
18930;DHT22;43305;52.186;5.598;2023-04-15T03:37:17;6.30;99.90
18930;DHT22;43305;52.186;5.598;2023-04-15T03:40:03;6.30;99.90
18930;DHT22;43305;52.186;5.598;2023-04-15T03:42:38;6.30;99.90
18930;DHT22;43305;52.186;5.598;2023-04-15T03:45:17;6.30;99.90
18930;DHT22;43305;52.186;5.598;2023-04-15T03:47:44;6.30;99.90
18930;DHT22;43305;52.186;5.598;2023-04-15T03:50:18;6.30;99.90
18930;DHT22;43305;52.186;5.598;2023-04-15T03:52:47;6.30;99.90
18930;DHT22;43305;52.186;5.598;2023-04-15T03:55:16;6.20;99.90
18930;DHT22;43305;52.186;5.598;2023-04-15T03:57:43;6.20;99.90
18930;DHT22;43305;52.186;5.598;2023-04-15T04:00:12;6.20;99.90
18930;DHT22;43305;52.186;5.598;2023-04-15T04:02:40;6.20;99.90
18930;DHT22;43305;52.186;5.598;2023-04-15T04:05:07;6.10;99.90
18930;DHT22;43305;52.186;5.598;2023-04-15T04:07:39;6.10;99.90
18930;DHT22;43305;52.186;5.598;2023-04-15T04:10:06;6.10;99.90
18930;DHT22;43305;52.186;5.598;2023-04-15T04:12:34;6.10;99.90
18930;DHT22;43305;52.186;5.598;2023-04-15T04:15:01;6.10;99.90
18930;DHT22;43305;52.186;5.598;2023-04-15T04:17:28;6.10;99.90
18930;DHT22;43305;52.186;5.598;2023-04-15T04:19:55;6.10;99.90
18930;DHT22;43305;52.186;5.598;2023-04-15T04:22:22;6.10;99.90
18930;DHT22;43305;52.186;5.598;2023-04-15T04:24:52;6.00;99.90
18930;DHT22;43305;52.186;5.598;2023-04-15T04:27:21;6.00;99.90
18930;DHT22;43305;52.186;5.598;2023-04-15T04:29:48;6.00;99.90
18930;DHT22;43305;52.186;5.598;2023-04-15T04:32:24;6.00;99.90
18930;DHT22;43305;52.186;5.598;2023-04-15T04:34:52;6.00;99.90
18930;DHT22;43305;52.186;5.598;2023-04-15T04:37:23;6.00;99.90
18930;DHT22;43305;52.186;5.598;2023-04-15T04:39:54;6.00;99.90
18930;DHT22;43305;52.186;5.598;2023-04-15T04:42:24;6.00;99.90
18930;DHT22;43305;52.186;5.598;2023-04-15T04:44:54;6.00;99.90
18930;DHT22;43305;52.186;5.598;2023-04-15T04:47:21;6.00;99.90
18930;DHT22;43305;52.186;5.598;2023-04-15T04:49:48;6.00;99.90
18930;DHT22;43305;52.186;5.598;2023-04-15T04:52:15;6.00;99.90
18930;DHT22;43305;52.186;5.598;2023-04-15T04:54:42;6.00;99.90
18930;DHT22;43305;52.186;5.598;2023-04-15T04:57:11;6.00;99.90
18930;DHT22;43305;52.186;5.598;2023-04-15T04:59:39;6.00;99.90
18930;DHT22;43305;52.186;5.598;2023-04-15T05:02:06;6.00;99.90
18930;DHT22;43305;52.186;5.598;2023-04-15T05:04:33;6.00;99.90
18930;DHT22;43305;52.186;5.598;2023-04-15T05:07:03;6.00;99.90
18930;DHT22;43305;52.186;5.598;2023-04-15T05:09:29;6.00;99.90
18930;DHT22;43305;52.186;5.598;2023-04-15T05:12:00;6.00;99.90
18930;DHT22;43305;52.186;5.598;2023-04-15T05:14:28;6.00;99.90
18930;DHT22;43305;52.186;5.598;2023-04-15T05:16:55;6.00;99.90
18930;DHT22;43305;52.186;5.598;2023-04-15T05:19:22;6.00;99.90
18930;DHT22;43305;52.186;5.598;2023-04-15T05:21:50;6.00;99.90
18930;DHT22;43305;52.186;5.598;2023-04-15T05:24:17;6.00;99.90
18930;DHT22;43305;52.186;5.598;2023-04-15T05:26:50;6.00;99.90
18930;DHT22;43305;52.186;5.598;2023-04-15T05:29:30;6.00;99.90
18930;DHT22;43305;52.186;5.598;2023-04-15T05:31:57;6.10;99.90
18930;DHT22;43305;52.186;5.598;2023-04-15T05:34:27;6.00;99.90
18930;DHT22;43305;52.186;5.598;2023-04-15T05:36:54;6.10;99.90
18930;DHT22;43305;52.186;5.598;2023-04-15T05:39:23;6.20;99.90
18930;DHT22;43305;52.186;5.598;2023-04-15T05:41:54;6.20;99.90
18930;DHT22;43305;52.186;5.598;2023-04-15T05:44:25;6.20;99.90
18930;DHT22;43305;52.186;5.598;2023-04-15T05:46:54;6.30;99.90
18930;DHT22;43305;52.186;5.598;2023-04-15T05:49:21;6.30;99.90
18930;DHT22;43305;52.186;5.598;2023-04-15T05:51:48;6.30;99.90
18930;DHT22;43305;52.186;5.598;2023-04-15T05:54:18;6.40;99.90
18930;DHT22;43305;52.186;5.598;2023-04-15T05:56:52;6.40;99.90
18930;DHT22;43305;52.186;5.598;2023-04-15T05:59:21;6.40;99.90
18930;DHT22;43305;52.186;5.598;2023-04-15T06:01:48;6.50;99.90
18930;DHT22;43305;52.186;5.598;2023-04-15T06:04:18;6.60;99.90
18930;DHT22;43305;52.186;5.598;2023-04-15T06:06:45;6.60;99.90
18930;DHT22;43305;52.186;5.598;2023-04-15T06:09:12;6.70;99.90
18930;DHT22;43305;52.186;5.598;2023-04-15T06:11:39;6.70;99.90
18930;DHT22;43305;52.186;5.598;2023-04-15T06:14:06;6.80;99.90
18930;DHT22;43305;52.186;5.598;2023-04-15T06:16:36;6.90;99.90
18930;DHT22;43305;52.186;5.598;2023-04-15T06:19:03;7.00;99.90
18930;DHT22;43305;52.186;5.598;2023-04-15T06:21:32;7.20;99.90
18930;DHT22;43305;52.186;5.598;2023-04-15T06:23:59;7.30;99.90
18930;DHT22;43305;52.186;5.598;2023-04-15T06:26:28;7.30;99.90
18930;DHT22;43305;52.186;5.598;2023-04-15T06:28:55;7.40;99.90
18930;DHT22;43305;52.186;5.598;2023-04-15T06:31:22;7.50;99.90
18930;DHT22;43305;52.186;5.598;2023-04-15T06:33:50;7.60;99.90
18930;DHT22;43305;52.186;5.598;2023-04-15T06:36:22;7.70;99.90
18930;DHT22;43305;52.186;5.598;2023-04-15T06:38:51;7.80;99.90
18930;DHT22;43305;52.186;5.598;2023-04-15T06:41:18;7.80;99.90
18930;DHT22;43305;52.186;5.598;2023-04-15T06:43:48;8.00;99.90
18930;DHT22;43305;52.186;5.598;2023-04-15T06:46:15;8.00;99.90
18930;DHT22;43305;52.186;5.598;2023-04-15T06:48:45;8.20;99.90
18930;DHT22;43305;52.186;5.598;2023-04-15T06:51:12;8.30;99.90
18930;DHT22;43305;52.186;5.598;2023-04-15T06:53:39;8.40;99.90
18930;DHT22;43305;52.186;5.598;2023-04-15T06:56:09;8.40;99.90
18930;DHT22;43305;52.186;5.598;2023-04-15T06:58:36;8.50;99.90
18930;DHT22;43305;52.186;5.598;2023-04-15T07:01:03;8.60;99.90
18930;DHT22;43305;52.186;5.598;2023-04-15T07:03:31;8.70;99.90
18930;DHT22;43305;52.186;5.598;2023-04-15T07:05:58;8.70;99.90
18930;DHT22;43305;52.186;5.598;2023-04-15T07:08:26;8.70;99.90
18930;DHT22;43305;52.186;5.598;2023-04-15T07:10:53;8.80;99.90
18930;DHT22;43305;52.186;5.598;2023-04-15T07:13:22;8.90;99.90
18930;DHT22;43305;52.186;5.598;2023-04-15T07:15:51;8.90;99.90
18930;DHT22;43305;52.186;5.598;2023-04-15T07:18:19;9.10;99.90
18930;DHT22;43305;52.186;5.598;2023-04-15T07:20:45;9.20;99.90
18930;DHT22;43305;52.186;5.598;2023-04-15T07:23:13;9.40;99.90
18930;DHT22;43305;52.186;5.598;2023-04-15T07:25:40;9.60;99.90
18930;DHT22;43305;52.186;5.598;2023-04-15T07:28:07;9.60;99.90
18930;DHT22;43305;52.186;5.598;2023-04-15T07:30:39;9.90;99.90
18930;DHT22;43305;52.186;5.598;2023-04-15T07:33:06;10.10;99.90
18930;DHT22;43305;52.186;5.598;2023-04-15T07:35:33;10.30;99.90
18930;DHT22;43305;52.186;5.598;2023-04-15T07:38:07;10.50;99.90
18930;DHT22;43305;52.186;5.598;2023-04-15T07:40:45;10.60;99.90
18930;DHT22;43305;52.186;5.598;2023-04-15T07:43:12;10.50;99.90
18930;DHT22;43305;52.186;5.598;2023-04-15T07:45:41;10.60;99.90
18930;DHT22;43305;52.186;5.598;2023-04-15T07:48:09;10.60;99.90
18930;DHT22;43305;52.186;5.598;2023-04-15T07:50:38;10.60;99.90
18930;DHT22;43305;52.186;5.598;2023-04-15T07:53:06;10.60;99.90
18930;DHT22;43305;52.186;5.598;2023-04-15T07:55:36;10.60;99.90
18930;DHT22;43305;52.186;5.598;2023-04-15T07:58:03;10.60;99.90
18930;DHT22;43305;52.186;5.598;2023-04-15T08:00:30;10.60;99.90
18930;DHT22;43305;52.186;5.598;2023-04-15T08:02:59;10.70;99.90
18930;DHT22;43305;52.186;5.598;2023-04-15T08:05:28;10.80;99.90
18930;DHT22;43305;52.186;5.598;2023-04-15T08:07:55;10.90;99.90
18930;DHT22;43305;52.186;5.598;2023-04-15T08:10:23;10.80;99.90
18930;DHT22;43305;52.186;5.598;2023-04-15T08:12:56;10.80;99.90
18930;DHT22;43305;52.186;5.598;2023-04-15T08:15:24;10.90;99.90
18930;DHT22;43305;52.186;5.598;2023-04-15T08:17:54;10.90;99.90
18930;DHT22;43305;52.186;5.598;2023-04-15T08:20:32;11.00;99.90
18930;DHT22;43305;52.186;5.598;2023-04-15T08:23:23;10.10;99.90
18930;DHT22;43305;52.186;5.598;2023-04-15T08:26:24;9.60;99.90
18930;DHT22;43305;52.186;5.598;2023-04-15T08:28:57;9.30;99.90
18930;DHT22;43305;52.186;5.598;2023-04-15T08:31:39;9.00;99.90
18930;DHT22;43305;52.186;5.598;2023-04-15T08:34:30;8.80;99.90
18930;DHT22;43305;52.186;5.598;2023-04-15T08:37:22;8.80;99.90
18930;DHT22;43305;52.186;5.598;2023-04-15T08:40:06;8.80;99.90
18930;DHT22;43305;52.186;5.598;2023-04-15T08:42:43;8.80;99.90
18930;DHT22;43305;52.186;5.598;2023-04-15T08:45:20;8.70;99.90
18930;DHT22;43305;52.186;5.598;2023-04-15T08:49:42;8.70;99.90
18930;DHT22;43305;52.186;5.598;2023-04-15T08:52:09;8.90;99.90
18930;DHT22;43305;52.186;5.598;2023-04-15T08:54:37;8.90;99.90
18930;DHT22;43305;52.186;5.598;2023-04-15T08:57:04;9.00;99.90
18930;DHT22;43305;52.186;5.598;2023-04-15T08:59:32;9.00;99.90
18930;DHT22;43305;52.186;5.598;2023-04-15T09:02:00;9.10;99.90
18930;DHT22;43305;52.186;5.598;2023-04-15T09:04:28;9.30;99.90
18930;DHT22;43305;52.186;5.598;2023-04-15T09:06:56;9.70;99.90
18930;DHT22;43305;52.186;5.598;2023-04-15T09:09:23;10.10;99.90
18930;DHT22;43305;52.186;5.598;2023-04-15T09:11:52;10.10;99.90
18930;DHT22;43305;52.186;5.598;2023-04-15T09:14:18;10.20;99.90
18930;DHT22;43305;52.186;5.598;2023-04-15T09:16:59;10.20;99.90
18930;DHT22;43305;52.186;5.598;2023-04-15T09:19:26;10.10;99.90
18930;DHT22;43305;52.186;5.598;2023-04-15T09:21:54;10.30;99.90
18930;DHT22;43305;52.186;5.598;2023-04-15T09:24:22;10.40;99.90
18930;DHT22;43305;52.186;5.598;2023-04-15T09:26:54;10.70;99.90
18930;DHT22;43305;52.186;5.598;2023-04-15T09:29:24;10.80;99.90
18930;DHT22;43305;52.186;5.598;2023-04-15T09:31:54;11.00;99.90
18930;DHT22;43305;52.186;5.598;2023-04-15T09:34:21;11.20;99.90
18930;DHT22;43305;52.186;5.598;2023-04-15T09:37:00;11.40;99.90
18930;DHT22;43305;52.186;5.598;2023-04-15T09:39:28;11.30;99.90
18930;DHT22;43305;52.186;5.598;2023-04-15T09:42:10;11.20;99.90
18930;DHT22;43305;52.186;5.598;2023-04-15T09:44:37;11.20;99.90
18930;DHT22;43305;52.186;5.598;2023-04-15T09:47:04;11.30;99.90
18930;DHT22;43305;52.186;5.598;2023-04-15T09:49:31;11.50;99.90
